Skip Navigation Links www.nws.noaa.gov 
NOAA logo - Click to go to the NOAA homepage National Weather Service   NWS logo - Click to go to the NWS homepage
NCEP Central Operations
Search 
   

Local forecast by
"City, St"

Search NCO
NCEP Home > NCEP Central Operations > Data Management and Quality Assessment Branch > Quality Assessment Project > Raob Data Manual Quality Control Reports > Mexican Raob Data Manual Quality Control Reports

Latest Mexican Raob Data Manual Quality Control Report Printer image icon. Printer Friendly Version

Latest Mexican Raob Data Manual Quality Control Report

Previous Mexican Raob Data Manual Quality Control Reports

                RAOB DATA MANUAL QUALITY CONTROL (QC) REPORT
                                  MEXICAN
                       From 20180501 through 20180531

 ___DATE___ HOUR REASN DETAILS...

76225/CUU
   20180529  00Z DELET Purged temps/moisture 853-849 mb...super-adiabatic lapse rate

1 record found

76256/GYM
   20180504  12Z SHORT Short to 428mb.
   20180518  12Z 10142 10142...Ground equipment failure
   20180530  12Z 10158 10158
   20180531  12Z 10158 10158...Flight equipment failure.

4 records found

76394/MTY
   20180505  12Z SHORT Short to 451mb.
   20180520  12Z DELET Purged temps/moisture at 957 mb...super-adiabatic lapse rate
   20180530  12Z DELET Purged temps 888-847 mb...wet bulb effect

3 records found

76405/LAP
   20180501  00Z 10158 10158
   20180502  00Z 10158 10158
   20180505  00Z 10158 10158
   20180506  00Z 10158 10158
   20180506  12Z 10159 10159.
   20180507  00Z 10158 10158
   20180508  00Z 10158 10158; Flight equip problem.
   20180509  00Z 10158 10158; Flight equip problem.
   20180510  00Z 10158 10158; Flight equip problem..
   20180511  00Z 10158 10158...Flight equipment failure
   20180512  00Z 10158 10158...Flight equipment failure
   20180513  00Z 10158 10158...Flight equipment failure.
   20180514  00Z 10158 10158...Flight equipment failure.
   20180515  00Z 10158 10158
   20180516  00Z 10158 10158
   20180517  00Z 10158 10158
   20180518  00Z 10158 10158; Flight equip problem.
   20180519  00Z 10158 10158; Flight equip problem.
   20180520  00Z 10158 10158
   20180522  00Z 10158 10158...Flight equipment failure
   20180523  00Z 10158 10158
   20180524  00Z 10158 10158
   20180526  00Z 10158 10158
   20180527  00Z 10158 10158
   20180528  00Z 10158 10158
   20180529  00Z 10158 10158
   20180530  00Z 10158 10158
   20180531  00Z 10158 10158

28 records found

76458/MZT
   20180502  00Z 10158 10158
   20180505  00Z 10158 10158
   20180506  12Z 10142 10142...Ground equipment failure.
   20180508  00Z 10158 10158; Flight equip problem.
   20180510  00Z 10158 10158; Flight equip problem..
   20180510  12Z SHORT Short to 1010mb
   20180511  00Z 10158 10158...Flight equipment failure
   20180512  00Z 10158 10158...Flight equipment failure
   20180515  00Z 10158 10158
   20180516  00Z 10158 10158
   20180517  00Z 10158 10158
   20180518  00Z 10158 10158; Flight equip problem.
   20180519  00Z 10158 10158; Flight equip problem.
   20180520  00Z 10158 10158
   20180521  00Z 10158 10158
   20180522  00Z 10158 10158...Flight equipment failure
   20180523  00Z 10158 10158
   20180524  00Z 10158 10158
   20180525  00Z 10158 10158
   20180526  00Z 10158 10158
   20180527  00Z 10158 10158
   20180530  00Z 10158 10158
   20180531  00Z 10158 10158

23 records found

76526/ZAC
   20180513  12Z DELET Purged hgts/temps 456mb and up

1 record found

76595/CUN
   20180523  12Z SHORT Short to 503mb.

1 record found

76612/GDL
   20180531  12Z DELET Purged all heights/temps/moisture...baseline error.
                 BASEL

1 record found

76644/MID
   20180519  12Z 10158 10158...Flight equipment failure
   20180523  12Z 10158 10158...Flight equiment failure.

2 records found

76654/MZL
   20180501  00Z 10158 10158
   20180502  00Z 10158 10158
   20180506  00Z 10158 10158
   20180510  00Z 10158 10158; Flight equip problem..
   20180511  00Z 10158 10158...Flight equipment failure
   20180512  00Z 10158 10158...Flight equipment failure
   20180513  00Z 10158 10158...Flight equipment failure.
   20180515  00Z 10158 10158
   20180516  00Z 10158 10158
   20180517  00Z 10158 10158
   20180518  00Z 10158 10158; Flight equip problem.
   20180519  12Z DELET Purged all hgts...too high
   20180523  00Z 10158 10158
   20180524  00Z 10158 10158
   20180526  00Z 10158 10158
   20180527  00Z 10158 10158
   20180529  00Z 10158 10158
   20180530  00Z 10158 10158
   20180531  00Z 10158 10158
   20180531  12Z SHORT Short to 455mb.

20 records found

76679/MEX
   20180505  12Z DELET Purged temps/moisture 686-684mb...wet bulb effect.
   20180519  00Z DELET Purge temps and humidity 164 to 150mb..Wet bulb effect.

2 records found

76692/HYY
   20180501  00Z 10158 10158
   20180506  00Z 10158 10158
   20180507  00Z 10158 10158
   20180508  00Z 10158 10158; Flight equip problem.
   20180510  00Z 10158 10158; Flight equip problem..
   20180511  00Z 10158 10158...Flight equipment failure
   20180513  00Z 10158 10158...Flight equipment failure.
   20180514  00Z 10158 10158...Flight equipment failure.
   20180518  00Z 10158 10158; Flight equip problem.
   20180522  00Z 10158 10158...Flight equipment failure
   20180523  00Z 10158 10158
   20180524  00Z 10158 10158
   20180525  00Z 10158 10158
   20180526  12Z 10158 10158; flight equip problem.
   20180528  00Z 10158 10158
   20180528  12Z 10158 10158
   20180529  00Z 10158 10158
   20180529  12Z 10158 10158...Flight equipment failure.
   20180530  00Z 10158 10158
   20180530  12Z 10158 10158
   20180531  00Z 10158 10158
   20180531  12Z 10158 10158...Flight equipment failure.

22 records found

76903/TAP
   20180514  12Z SHORT Short to 492mb.
   20180521  12Z DELET Purged all heights/temps/moisture...baseline error.
                 BASEL
   20180525  12Z DELET Purge temps and humidity 509 to 486mb. Wet bulb effect.
   20180530  12Z 10159 10159

4 records found



SELECTED STATIONS WITH NO SDM QC:
  76743/VHA  76805/ACA




This and related reports are available on the Web at . . .
http://www.nco.ncep.noaa.gov/sib/qap/raobqc/
  

NOAA/ National Weather Service
National Centers for Environmental Prediction
NCEP Central Operations
5830 University Research Court
College Park, MD 20740
NCO Web Team
Disclaimer Privacy Policy
Page last modified: Thursday, 16-Feb-2017 19:37:45 UTC